createdAt,value
2023-05-16T00:00:28.414Z,38.09
2023-05-16T00:01:28.184Z,38.05
2023-05-16T00:02:28.254Z,38.08
2023-05-16T00:03:28.245Z,38.05
2023-05-16T00:04:28.147Z,38.06
2023-05-16T00:05:28.032Z,38.07
2023-05-16T00:06:28.052Z,38.06
2023-05-16T00:07:27.976Z,38.02
2023-05-16T00:08:27.960Z,38.04
2023-05-16T00:09:27.910Z,37.98
2023-05-16T00:10:26.992Z,37.98
2023-05-16T00:11:27.886Z,37.99
2023-05-16T00:12:27.819Z,37.92
2023-05-16T00:13:27.812Z,37.88
2023-05-16T00:14:27.772Z,37.90
2023-05-16T00:15:27.726Z,37.83
2023-05-16T00:16:27.727Z,37.81
2023-05-16T00:17:27.750Z,37.79
2023-05-16T00:18:27.631Z,37.76
2023-05-16T00:19:27.606Z,37.76
2023-05-16T00:20:27.955Z,37.73
2023-05-16T00:21:27.547Z,37.75
2023-05-16T00:22:27.532Z,37.68
2023-05-16T00:23:27.488Z,37.65
2023-05-16T00:24:27.438Z,37.67
2023-05-16T00:25:27.420Z,37.67
2023-05-16T00:26:27.393Z,37.63
2023-05-16T00:27:27.351Z,37.64
2023-05-16T00:28:27.371Z,37.56
2023-05-16T00:29:27.375Z,37.57
2023-05-16T00:30:27.457Z,37.57
2023-05-16T00:31:27.358Z,37.56
2023-05-16T00:32:27.361Z,37.54
2023-05-16T00:33:27.304Z,37.50
2023-05-16T00:34:27.321Z,37.52
2023-05-16T00:35:27.282Z,37.50
2023-05-16T00:36:27.268Z,37.49
2023-05-16T00:37:27.270Z,37.46
2023-05-16T00:38:27.251Z,37.48
2023-05-16T00:39:27.249Z,37.47
2023-05-16T00:40:27.514Z,37.46
2023-05-16T00:41:27.215Z,37.44
2023-05-16T00:42:27.248Z,37.44
2023-05-16T00:43:27.250Z,37.40
2023-05-16T00:44:27.216Z,37.39
2023-05-16T00:45:27.236Z,37.37
2023-05-16T00:46:27.252Z,37.35
2023-05-16T00:47:27.210Z,37.39
2023-05-16T00:48:27.181Z,37.36
2023-05-16T00:49:27.229Z,37.39
2023-05-16T00:50:27.379Z,37.34
2023-05-16T00:51:27.158Z,37.36
2023-05-16T00:52:27.180Z,37.31
2023-05-16T00:53:27.147Z,37.34
2023-05-16T00:54:27.130Z,37.33
2023-05-16T00:55:27.147Z,37.30
2023-05-16T00:56:27.145Z,37.35
2023-05-16T00:57:27.104Z,37.31
2023-05-16T00:58:27.124Z,37.28
2023-05-16T00:59:27.090Z,37.30
2023-05-16T01:00:27.328Z,37.30
2023-05-16T01:01:27.180Z,37.28
2023-05-16T01:02:27.187Z,37.31
2023-05-16T01:03:27.175Z,37.25
2023-05-16T01:04:27.106Z,37.28
2023-05-16T01:05:27.385Z,37.27
2023-05-16T01:06:27.072Z,37.23
2023-05-16T01:07:27.076Z,37.25
2023-05-16T01:08:27.066Z,37.26
2023-05-16T01:09:27.067Z,37.26
2023-05-16T01:10:27.091Z,37.24
2023-05-16T01:11:27.050Z,37.26
2023-05-16T01:12:27.047Z,37.21
2023-05-16T01:13:27.038Z,37.25
2023-05-16T01:14:27.036Z,37.23
2023-05-16T01:15:27.187Z,37.22
2023-05-16T01:16:27.106Z,37.27
2023-05-16T01:17:27.156Z,37.21
2023-05-16T01:18:27.015Z,37.23
2023-05-16T01:19:27.156Z,37.21
2023-05-16T01:20:26.997Z,37.23
2023-05-16T01:21:27.004Z,37.21
2023-05-16T01:22:27.033Z,37.24
2023-05-16T01:23:26.988Z,37.23
2023-05-16T01:24:27.004Z,37.20
2023-05-16T01:25:27.278Z,37.18
2023-05-16T01:26:26.995Z,37.12
2023-05-16T01:27:26.984Z,37.14
2023-05-16T01:28:27.013Z,37.19
2023-05-16T01:29:26.977Z,37.18
2023-05-16T01:30:26.999Z,37.18
2023-05-16T01:31:26.980Z,37.19
2023-05-16T01:32:26.978Z,37.16
2023-05-16T01:33:26.993Z,37.12
2023-05-16T01:34:26.980Z,37.16
2023-05-16T01:35:27.198Z,37.17
2023-05-16T01:36:26.962Z,37.18
2023-05-16T01:37:26.974Z,37.12
2023-05-16T01:38:26.971Z,37.13
2023-05-16T01:39:26.979Z,37.16
2023-05-16T01:40:27.004Z,37.15
2023-05-16T01:41:26.990Z,37.14
2023-05-16T01:42:27.021Z,37.12
2023-05-16T01:43:26.987Z,37.14
2023-05-16T01:44:26.985Z,37.13
2023-05-16T01:45:27.330Z,37.13
2023-05-16T01:46:27.039Z,37.10
2023-05-16T01:47:27.058Z,37.08
2023-05-16T01:48:26.971Z,37.09
2023-05-16T01:49:26.991Z,37.14
2023-05-16T01:50:26.975Z,37.12
2023-05-16T01:51:26.962Z,37.13
2023-05-16T01:52:26.995Z,37.12
2023-05-16T01:53:26.973Z,37.07
2023-05-16T01:54:26.966Z,37.08
2023-05-16T01:55:27.077Z,37.08
2023-05-16T01:56:26.976Z,37.05
2023-05-16T01:57:26.972Z,37.11
2023-05-16T01:58:26.981Z,37.10
2023-05-16T01:59:26.949Z,37.07
2023-05-16T02:00:26.951Z,37.03
2023-05-16T02:01:26.982Z,37.08
2023-05-16T02:02:27.019Z,37.09
2023-05-16T02:03:26.992Z,37.07
2023-05-16T02:04:26.968Z,37.06
2023-05-16T02:05:27.292Z,37.10
2023-05-16T02:06:27.032Z,37.09
2023-05-16T02:07:26.932Z,37.04
2023-05-16T02:08:26.935Z,37.05
2023-05-16T02:09:26.946Z,37.09
2023-05-16T02:10:26.911Z,37.08
2023-05-16T02:11:26.902Z,37.05
2023-05-16T02:12:26.909Z,37.07
2023-05-16T02:13:26.920Z,37.04
2023-05-16T02:14:26.934Z,37.01
2023-05-16T02:15:27.172Z,37.05
2023-05-16T02:16:26.973Z,36.99
2023-05-16T02:17:26.946Z,37.03
2023-05-16T02:18:26.904Z,37.03
2023-05-16T02:19:26.907Z,36.99
2023-05-16T02:20:26.920Z,37.03
2023-05-16T02:21:26.955Z,36.98
2023-05-16T02:22:26.891Z,37.03
2023-05-16T02:23:26.897Z,37.00
2023-05-16T02:24:26.944Z,36.96
2023-05-16T02:25:27.210Z,36.96
2023-05-16T02:26:26.900Z,37.01
2023-05-16T02:27:26.869Z,37.01
2023-05-16T02:28:26.866Z,36.96
2023-05-16T02:29:26.908Z,37.04
2023-05-16T02:30:26.860Z,36.96
2023-05-16T02:31:26.917Z,36.98
2023-05-16T02:32:26.915Z,36.99
2023-05-16T02:33:26.866Z,36.98
2023-05-16T02:34:26.901Z,36.99
2023-05-16T02:35:27.112Z,37.02
2023-05-16T02:36:26.860Z,36.95
2023-05-16T02:37:26.883Z,37.00
2023-05-16T02:38:26.855Z,36.98
2023-05-16T02:39:26.847Z,36.98
2023-05-16T02:40:26.858Z,36.97
2023-05-16T02:41:26.868Z,36.96
2023-05-16T02:42:26.863Z,36.97
2023-05-16T02:43:26.885Z,36.95
2023-05-16T02:44:26.859Z,36.98
2023-05-16T02:45:27.169Z,36.96
2023-05-16T02:46:26.898Z,36.95
2023-05-16T02:47:26.919Z,36.97
2023-05-16T02:48:26.875Z,36.95
2023-05-16T02:49:26.863Z,36.94
2023-05-16T02:50:26.869Z,36.97
2023-05-16T02:51:26.872Z,36.93
2023-05-16T02:52:26.864Z,36.92
2023-05-16T02:53:26.889Z,36.91
2023-05-16T02:54:26.897Z,36.97
2023-05-16T02:55:26.864Z,36.97
2023-05-16T02:56:26.855Z,36.92
2023-05-16T02:57:26.978Z,36.89
2023-05-16T02:58:26.857Z,36.91
2023-05-16T02:59:26.864Z,36.85
2023-05-16T03:00:26.916Z,36.96
2023-05-16T03:01:26.930Z,36.91
2023-05-16T03:02:26.973Z,36.91
2023-05-16T03:03:27.036Z,36.94
2023-05-16T03:04:26.904Z,36.88
2023-05-16T03:05:27.416Z,36.90
2023-05-16T03:06:26.919Z,36.92
2023-05-16T03:07:26.895Z,36.93
2023-05-16T03:08:26.866Z,36.94
2023-05-16T03:09:26.897Z,36.96
2023-05-16T03:10:26.878Z,36.92
2023-05-16T03:11:26.869Z,36.92
2023-05-16T03:12:26.878Z,36.89
2023-05-16T03:13:26.896Z,36.92
2023-05-16T03:14:26.882Z,36.85
2023-05-16T03:15:27.115Z,36.92
2023-05-16T03:16:26.903Z,36.91
2023-05-16T03:17:26.936Z,36.90
2023-05-16T03:18:26.914Z,36.89
2023-05-16T03:19:26.961Z,36.90
2023-05-16T03:20:26.905Z,36.89
2023-05-16T03:21:26.912Z,36.88
2023-05-16T03:22:26.915Z,36.85
2023-05-16T03:23:26.921Z,36.86
2023-05-16T03:24:26.965Z,36.89
2023-05-16T03:25:27.321Z,36.88
2023-05-16T03:26:27.557Z,36.86
2023-05-16T03:27:26.905Z,36.86
2023-05-16T03:28:26.911Z,36.84
2023-05-16T03:29:26.933Z,36.89
2023-05-16T03:30:26.945Z,36.82
2023-05-16T03:31:26.981Z,36.88
2023-05-16T03:32:26.939Z,36.86
2023-05-16T03:33:26.950Z,36.84
2023-05-16T03:34:26.963Z,36.82
2023-05-16T03:35:27.167Z,36.80
2023-05-16T03:36:26.973Z,36.80
2023-05-16T03:37:27.523Z,36.85
2023-05-16T03:38:26.976Z,36.83
2023-05-16T03:39:26.968Z,36.83
2023-05-16T03:40:26.989Z,36.81
2023-05-16T03:41:27.006Z,36.85
2023-05-16T03:42:26.983Z,36.80
2023-05-16T03:43:26.986Z,36.81
2023-05-16T03:44:27.028Z,36.81
2023-05-16T03:45:27.321Z,36.82
2023-05-16T03:46:27.057Z,36.81
2023-05-16T03:47:27.027Z,36.85
2023-05-16T03:48:27.026Z,36.83
2023-05-16T03:49:27.045Z,36.79
2023-05-16T03:50:27.080Z,36.80
2023-05-16T03:51:27.068Z,36.80
2023-05-16T03:52:27.062Z,36.79
2023-05-16T03:53:27.083Z,36.77
2023-05-16T03:54:27.077Z,36.76
2023-05-16T03:55:27.278Z,36.82
2023-05-16T03:56:27.100Z,36.80
2023-05-16T03:57:27.098Z,36.76
2023-05-16T03:58:27.078Z,36.79
2023-05-16T03:59:27.089Z,36.81
2023-05-16T04:00:27.089Z,36.80
2023-05-16T04:01:27.101Z,36.82
2023-05-16T04:02:27.206Z,36.79
2023-05-16T04:03:27.168Z,36.79
2023-05-16T04:04:27.127Z,36.77
2023-05-16T04:05:27.327Z,36.75
2023-05-16T04:06:27.135Z,36.79
2023-05-16T04:07:27.156Z,36.79
2023-05-16T04:08:27.171Z,36.77
2023-05-16T04:09:27.199Z,36.80
2023-05-16T04:10:27.268Z,36.77
2023-05-16T04:11:27.196Z,36.77
2023-05-16T04:12:27.211Z,36.74
2023-05-16T04:13:27.211Z,36.83
2023-05-16T04:14:27.176Z,36.78
2023-05-16T04:15:27.562Z,36.77
2023-05-16T04:16:27.233Z,36.77
2023-05-16T04:17:27.223Z,36.73
2023-05-16T04:18:27.204Z,36.77
2023-05-16T04:19:27.208Z,36.76
2023-05-16T04:20:27.251Z,36.77
2023-05-16T04:21:27.239Z,36.76
2023-05-16T04:22:27.243Z,36.74
2023-05-16T04:23:27.230Z,36.77
2023-05-16T04:24:27.238Z,36.76
2023-05-16T04:25:27.576Z,36.78
2023-05-16T04:26:27.260Z,36.76
2023-05-16T04:27:27.296Z,36.74
2023-05-16T04:28:27.263Z,36.74
2023-05-16T04:29:27.286Z,36.71
2023-05-16T04:30:27.319Z,36.76
2023-05-16T04:31:27.315Z,36.76
2023-05-16T04:32:27.338Z,36.73
2023-05-16T04:33:27.318Z,36.74
2023-05-16T04:34:27.316Z,36.76
2023-05-16T04:35:27.561Z,36.72
2023-05-16T04:36:27.381Z,36.74
2023-05-16T04:37:27.356Z,36.77
2023-05-16T04:38:27.378Z,36.73
2023-05-16T04:39:27.410Z,36.75
2023-05-16T04:40:27.449Z,36.81
2023-05-16T04:41:27.410Z,36.77
2023-05-16T04:42:27.423Z,36.75
2023-05-16T04:43:27.434Z,36.70
2023-05-16T04:44:27.451Z,36.77
2023-05-16T04:45:27.750Z,36.71
2023-05-16T04:46:27.574Z,36.76
2023-05-16T04:47:27.484Z,36.72
2023-05-16T04:48:27.489Z,36.69
2023-05-16T04:49:27.501Z,36.67
2023-05-16T04:50:27.511Z,36.69
2023-05-16T04:51:27.562Z,36.73
2023-05-16T04:52:27.516Z,36.72
2023-05-16T04:53:27.527Z,36.73
2023-05-16T04:54:27.519Z,36.68
2023-05-16T04:55:27.767Z,36.64
2023-05-16T04:56:27.539Z,36.69
2023-05-16T04:57:27.572Z,36.69
2023-05-16T04:58:27.536Z,36.66
2023-05-16T04:59:27.547Z,36.69
2023-05-16T05:00:27.797Z,36.67
2023-05-16T05:01:27.623Z,36.66
2023-05-16T05:02:27.566Z,36.66
2023-05-16T05:03:27.570Z,36.63
2023-05-16T05:04:27.577Z,36.57
2023-05-16T05:05:28.011Z,36.60
2023-05-16T05:06:27.559Z,36.56
2023-05-16T05:07:27.553Z,36.56
2023-05-16T05:08:27.838Z,36.55
2023-05-16T05:09:27.591Z,36.49
2023-05-16T05:10:27.562Z,36.52
2023-05-16T05:11:27.614Z,36.50
2023-05-16T05:12:27.554Z,36.48
2023-05-16T05:13:27.583Z,36.49
2023-05-16T05:14:27.561Z,36.49
2023-05-16T05:15:28.007Z,36.46
2023-05-16T05:16:27.557Z,36.45
2023-05-16T05:17:28.144Z,36.49
2023-05-16T05:18:27.639Z,36.45
2023-05-16T05:19:27.711Z,36.46
2023-05-16T05:20:27.547Z,36.57
2023-05-16T05:21:27.571Z,36.81
2023-05-16T05:22:28.046Z,36.69
2023-05-16T05:23:27.525Z,37.13
2023-05-16T05:24:27.513Z,36.92
2023-05-16T05:25:27.880Z,37.19
2023-05-16T05:26:28.079Z,37.43
2023-05-16T05:27:27.478Z,37.55
2023-05-16T05:28:27.504Z,38.22
2023-05-16T05:29:27.615Z,37.79
2023-05-16T05:30:27.575Z,37.57
2023-05-16T05:31:27.520Z,37.52
2023-05-16T05:32:27.581Z,37.51
2023-05-16T05:33:27.345Z,37.34
2023-05-16T05:34:27.308Z,37.20
2023-05-16T05:35:27.443Z,36.78
2023-05-16T05:36:27.576Z,36.58
2023-05-16T05:37:27.562Z,36.53
2023-05-16T05:38:31.231Z,37.19
2023-05-16T05:39:27.152Z,36.58
2023-05-16T05:40:27.120Z,36.55
2023-05-16T05:41:27.568Z,36.60
2023-05-16T05:42:27.043Z,36.54
2023-05-16T05:43:27.022Z,36.38
2023-05-16T05:44:26.999Z,36.47
2023-05-16T05:45:27.231Z,36.45
2023-05-16T05:46:42.690Z,36.36
2023-05-16T05:47:26.953Z,36.45
2023-05-16T05:48:26.893Z,36.36
2023-05-16T05:49:26.916Z,36.35
2023-05-16T05:50:26.842Z,36.31
2023-05-16T05:51:28.038Z,36.83
2023-05-16T05:52:26.796Z,36.71
2023-05-16T05:53:26.799Z,36.48
2023-05-16T05:54:26.755Z,36.70
2023-05-16T05:55:27.192Z,37.02
2023-05-16T05:56:32.999Z,37.03
2023-05-16T05:57:27.142Z,37.17
2023-05-16T05:58:27.706Z,37.24
2023-05-16T05:59:42.742Z,36.90
2023-05-16T06:00:26.623Z,37.21
2023-05-16T06:01:27.061Z,37.16
2023-05-16T06:02:42.398Z,37.43
2023-05-16T06:03:34.138Z,37.43
2023-05-16T06:05:27.224Z,37.47
2023-05-16T06:06:26.966Z,37.50
2023-05-16T06:07:26.611Z,37.56
2023-05-16T06:08:26.875Z,37.53
2023-05-16T06:09:26.784Z,37.61
2023-05-16T06:10:26.432Z,37.63
2023-05-16T06:11:26.673Z,37.67
2023-05-16T06:12:26.569Z,37.78
2023-05-16T06:13:26.582Z,37.75
2023-05-16T06:14:26.596Z,37.82
2023-05-16T06:15:26.709Z,37.85
2023-05-16T06:16:26.383Z,37.95
2023-05-16T06:17:26.542Z,37.98
2023-05-16T06:18:26.800Z,37.95
2023-05-16T06:19:26.378Z,38.02
2023-05-16T06:20:27.310Z,37.96
2023-05-16T06:21:26.070Z,37.86
2023-05-16T06:22:26.370Z,37.85
2023-05-16T06:23:26.320Z,37.83
2023-05-16T06:24:26.071Z,37.78
2023-05-16T06:25:26.160Z,37.78
2023-05-16T06:26:27.404Z,37.79
2023-05-16T06:27:26.268Z,37.85
2023-05-16T06:28:25.976Z,37.85
2023-05-16T06:29:26.331Z,37.89
2023-05-16T06:30:26.073Z,37.89
2023-05-16T06:31:25.160Z,37.84
2023-05-16T06:32:26.089Z,37.84
2023-05-16T06:33:26.144Z,37.84
2023-05-16T06:34:26.345Z,37.80
2023-05-16T06:35:26.005Z,37.67
2023-05-16T06:36:25.789Z,37.75
2023-05-16T06:37:27.755Z,37.72
2023-05-16T06:38:26.116Z,37.57
2023-05-16T06:39:25.902Z,37.49
2023-05-16T06:40:26.152Z,37.51
2023-05-16T06:41:34.100Z,37.51
2023-05-16T06:42:25.552Z,37.51
2023-05-16T06:43:28.714Z,37.49
2023-05-16T06:44:25.515Z,37.49
2023-05-16T06:45:26.073Z,37.87
2023-05-16T06:46:26.796Z,38.31
2023-05-16T06:47:25.923Z,38.51
2023-05-16T06:50:32.751Z,38.72
2023-05-16T06:51:25.966Z,38.58
2023-05-16T06:52:25.721Z,38.75
2023-05-16T06:53:41.119Z,38.69
2023-05-16T06:54:25.552Z,38.62
2023-05-16T06:55:25.126Z,38.68
2023-05-16T06:56:32.910Z,38.70
2023-05-16T06:57:24.962Z,38.71
2023-05-16T06:58:25.261Z,38.81
2023-05-16T06:59:27.970Z,39.08
2023-05-16T07:00:25.106Z,39.07
2023-05-16T07:01:25.279Z,39.16
2023-05-16T07:02:24.953Z,39.19
2023-05-16T07:03:24.909Z,39.18
2023-05-16T07:04:25.534Z,39.16
2023-05-16T07:05:24.707Z,39.26
2023-05-16T07:06:24.520Z,39.38
2023-05-16T07:07:24.504Z,39.04
2023-05-16T07:08:32.204Z,39.12
2023-05-16T07:09:25.705Z,39.05
2023-05-16T07:10:24.463Z,39.24
2023-05-16T07:11:24.665Z,39.16
2023-05-16T07:12:24.206Z,38.91
2023-05-16T07:13:25.286Z,38.78
2023-05-16T07:14:24.662Z,38.87
2023-05-16T07:15:25.698Z,38.61
2023-05-16T07:16:24.558Z,37.85
2023-05-16T07:17:24.553Z,38.49
2023-05-16T07:18:23.895Z,38.30
2023-05-16T07:19:24.588Z,38.40
2023-05-16T07:20:24.317Z,38.48
2023-05-16T07:21:23.758Z,37.91
2023-05-16T07:22:24.078Z,38.11
2023-05-16T07:23:24.123Z,38.03
2023-05-16T07:24:23.876Z,38.38
2023-05-16T07:25:23.907Z,37.68
2023-05-16T07:26:23.787Z,37.97
2023-05-16T07:27:23.960Z,37.86
2023-05-16T07:28:23.986Z,37.71
2023-05-16T07:29:23.639Z,37.63
2023-05-16T07:30:24.424Z,37.57
2023-05-16T07:31:23.886Z,37.34
2023-05-16T07:32:24.374Z,38.16
2023-05-16T07:33:23.190Z,37.59
2023-05-16T07:34:30.939Z,36.77
2023-05-16T07:35:27.769Z,36.91
2023-05-16T07:36:23.209Z,36.55
2023-05-16T07:37:23.445Z,37.10
2023-05-16T07:38:25.178Z,36.86
2023-05-16T07:39:23.457Z,37.70
2023-05-16T07:40:23.240Z,37.50
2023-05-16T07:41:26.517Z,37.24
2023-05-16T07:42:22.722Z,37.22
2023-05-16T07:43:23.100Z,37.57
2023-05-16T07:44:25.817Z,37.57
2023-05-16T07:45:30.312Z,37.42
2023-05-16T07:46:22.928Z,36.97
2023-05-16T07:47:22.856Z,37.47
2023-05-16T07:48:22.802Z,36.91
2023-05-16T07:49:22.339Z,37.07
2023-05-16T07:50:22.270Z,37.10
2023-05-16T07:51:38.218Z,37.24
2023-05-16T07:52:22.184Z,37.17
2023-05-16T07:53:22.139Z,37.18
2023-05-16T07:54:25.303Z,37.14
2023-05-16T07:55:22.052Z,36.99
2023-05-16T07:56:21.981Z,37.03
2023-05-16T07:57:23.958Z,36.98
2023-05-16T07:58:21.858Z,36.66
2023-05-16T07:59:21.857Z,36.51
2023-05-16T08:00:29.488Z,36.43
2023-05-16T08:01:23.007Z,36.36
2023-05-16T08:02:22.754Z,36.40
2023-05-16T08:03:21.835Z,36.60
2023-05-16T08:04:21.569Z,36.53
2023-05-16T08:05:21.537Z,36.52
2023-05-16T08:06:21.956Z,36.72
2023-05-16T08:07:21.387Z,36.45
2023-05-16T08:08:21.344Z,36.44
2023-05-16T08:09:24.491Z,36.50
2023-05-16T08:10:21.242Z,36.49
2023-05-16T08:11:21.623Z,36.86
2023-05-16T08:12:21.132Z,36.65
2023-05-16T08:13:28.550Z,36.64
2023-05-16T08:14:24.284Z,36.78
2023-05-16T08:15:20.974Z,36.74
2023-05-16T08:16:21.172Z,36.72
2023-05-16T08:17:21.279Z,36.74
2023-05-16T08:18:24.035Z,36.73
2023-05-16T08:19:20.891Z,36.65
2023-05-16T08:20:20.710Z,36.76
2023-05-16T08:21:20.676Z,36.57
2023-05-16T08:22:21.037Z,36.57
2023-05-16T08:23:21.012Z,36.72
2023-05-16T08:24:23.770Z,36.80
2023-05-16T08:25:20.637Z,36.84
2023-05-16T08:26:20.408Z,36.72
2023-05-16T08:27:20.358Z,36.69
2023-05-16T08:28:21.066Z,36.66
2023-05-16T08:29:20.334Z,36.65
2023-05-16T08:30:20.225Z,36.61
2023-05-16T08:31:20.207Z,36.48
2023-05-16T08:32:20.109Z,36.58
2023-05-16T08:33:20.367Z,35.91
2023-05-16T08:34:20.139Z,35.65
2023-05-16T08:35:27.902Z,36.44
2023-05-16T08:36:20.168Z,36.20
2023-05-16T08:37:23.293Z,36.48
2023-05-16T08:38:20.015Z,36.24
2023-05-16T08:39:23.043Z,36.44
2023-05-16T08:40:23.024Z,36.46
2023-05-16T08:41:20.220Z,36.38
2023-05-16T08:42:19.941Z,36.48
2023-05-16T08:43:19.634Z,36.47
2023-05-16T08:44:19.647Z,36.50
2023-05-16T08:46:20.667Z,37.06
2023-05-16T08:47:19.461Z,37.46
2023-05-16T08:48:19.429Z,37.42
2023-05-16T08:49:19.875Z,37.46
2023-05-16T08:50:19.287Z,37.69
2023-05-16T08:51:19.236Z,37.83
2023-05-16T08:52:19.228Z,38.01
2023-05-16T08:53:19.230Z,37.99
2023-05-16T08:54:19.702Z,38.10
2023-05-16T08:55:19.236Z,38.19
2023-05-16T08:56:19.221Z,38.09
2023-05-16T08:57:19.225Z,38.06
2023-05-16T08:58:19.218Z,38.19
2023-05-16T08:59:19.238Z,38.15
2023-05-16T09:00:19.647Z,38.37
2023-05-16T09:01:19.287Z,38.20
2023-05-16T09:02:19.376Z,38.28
2023-05-16T09:03:19.229Z,38.32
2023-05-16T09:04:19.250Z,38.43
2023-05-16T09:05:19.128Z,38.37
2023-05-16T09:06:19.130Z,38.45
2023-05-16T09:07:19.111Z,38.37
2023-05-16T09:08:19.055Z,38.58
2023-05-16T09:09:19.029Z,38.46
2023-05-16T09:10:19.089Z,38.78
2023-05-16T09:11:19.147Z,38.51
2023-05-16T09:12:19.033Z,38.58
2023-05-16T09:13:18.951Z,38.63
2023-05-16T09:14:18.912Z,38.65
2023-05-16T09:15:18.858Z,38.66
2023-05-16T09:16:19.602Z,38.85
2023-05-16T09:17:28.531Z,38.80
2023-05-16T09:18:18.829Z,38.76
2023-05-16T09:19:18.732Z,38.84
2023-05-16T09:20:19.625Z,39.04
2023-05-16T09:21:18.778Z,38.84
2023-05-16T09:22:18.498Z,38.93
2023-05-16T09:23:18.424Z,38.79
2023-05-16T09:24:19.327Z,39.03
2023-05-16T09:25:28.690Z,38.98
2023-05-16T09:26:18.705Z,39.00
2023-05-16T09:27:18.160Z,38.96
2023-05-16T09:28:18.072Z,39.18
2023-05-16T09:29:18.042Z,39.07
2023-05-16T09:30:18.001Z,39.00
2023-05-16T09:31:18.217Z,39.16
2023-05-16T09:32:17.844Z,39.19
2023-05-16T09:33:17.827Z,39.34
2023-05-16T09:34:17.803Z,39.02
2023-05-16T09:35:27.146Z,38.83
2023-05-16T09:36:17.798Z,38.93
2023-05-16T09:37:17.531Z,39.18
2023-05-16T09:38:17.780Z,39.06
2023-05-16T09:39:17.390Z,39.04
2023-05-16T09:40:17.329Z,39.08
2023-05-16T09:41:17.730Z,39.14
2023-05-16T09:42:17.242Z,39.11
2023-05-16T09:43:17.833Z,39.39
2023-05-16T09:44:18.091Z,38.91
2023-05-16T09:45:17.021Z,38.55
2023-05-16T09:46:17.238Z,38.16
2023-05-16T09:47:16.896Z,37.81
2023-05-16T09:48:17.355Z,37.40
2023-05-16T09:49:17.818Z,37.25
2023-05-16T09:50:17.495Z,37.46
2023-05-16T09:51:16.717Z,36.81
2023-05-16T09:52:16.574Z,36.60
2023-05-16T09:53:16.610Z,37.00
2023-05-16T09:54:16.699Z,36.62
2023-05-16T09:55:19.659Z,36.56
2023-05-16T09:56:16.408Z,36.63
2023-05-16T09:57:16.298Z,36.56
2023-05-16T09:58:16.452Z,36.33
2023-05-16T09:59:16.723Z,36.16
2023-05-16T10:00:16.186Z,36.26
2023-05-16T10:01:16.068Z,36.77
2023-05-16T10:02:16.046Z,36.18
2023-05-16T10:03:16.002Z,36.27
2023-05-16T10:04:19.136Z,36.25
2023-05-16T10:05:16.236Z,36.26
2023-05-16T10:06:15.824Z,36.44
2023-05-16T10:07:16.133Z,36.08
2023-05-16T10:08:15.667Z,36.39
2023-05-16T10:09:15.731Z,36.27
2023-05-16T10:10:15.673Z,36.14
2023-05-16T10:11:15.508Z,36.24
2023-05-16T10:13:15.366Z,36.20
2023-05-16T10:14:47.544Z,36.00
2023-05-16T10:15:15.829Z,36.22
2023-05-16T10:16:15.764Z,36.22
2023-05-16T10:17:15.399Z,36.57
2023-05-16T10:18:15.208Z,36.73
2023-05-16T10:19:15.154Z,36.81
2023-05-16T10:20:16.081Z,36.96
2023-05-16T10:21:15.276Z,37.28
2023-05-16T10:22:14.878Z,37.18
2023-05-16T10:23:14.771Z,37.09
2023-05-16T10:24:15.671Z,37.23
2023-05-16T10:25:14.744Z,37.19
2023-05-16T10:26:14.814Z,37.15
2023-05-16T10:27:14.505Z,36.62
2023-05-16T10:28:14.447Z,36.28
2023-05-16T10:29:14.378Z,35.67
2023-05-16T10:30:14.892Z,36.12
2023-05-16T10:31:14.372Z,35.93
2023-05-16T10:32:14.365Z,35.82
2023-05-16T10:33:14.400Z,36.13
2023-05-16T10:34:17.489Z,36.73
2023-05-16T10:35:14.715Z,37.00
2023-05-16T10:36:14.174Z,37.33
2023-05-16T10:37:14.142Z,37.35
2023-05-16T10:38:14.303Z,37.59
2023-05-16T10:39:14.179Z,38.51
2023-05-16T10:40:14.173Z,39.36
2023-05-16T10:41:14.141Z,39.09
2023-05-16T10:42:14.134Z,38.85
2023-05-16T10:43:14.138Z,38.47
2023-05-16T10:44:14.187Z,38.72
2023-05-16T10:45:13.701Z,38.34
2023-05-16T10:46:13.793Z,38.44
2023-05-16T10:47:13.571Z,38.64
2023-05-16T10:48:13.597Z,38.39
2023-05-16T10:49:13.467Z,38.59
2023-05-16T10:50:13.416Z,38.58
2023-05-16T10:51:13.684Z,38.38
2023-05-16T10:52:13.687Z,38.33
2023-05-16T10:53:13.266Z,38.33
2023-05-16T10:54:13.273Z,38.31
2023-05-16T10:55:13.147Z,38.16
2023-05-16T10:56:13.149Z,38.26
2023-05-16T10:57:13.183Z,38.02
2023-05-16T10:58:13.165Z,38.02
2023-05-16T10:59:13.171Z,38.13
2023-05-16T11:00:13.192Z,38.09
2023-05-16T11:01:13.222Z,37.97
2023-05-16T11:02:13.203Z,37.97
2023-05-16T11:03:13.446Z,38.01
2023-05-16T11:04:13.202Z,37.98
2023-05-16T11:05:13.186Z,37.98
2023-05-16T11:06:13.276Z,38.07
2023-05-16T11:07:13.179Z,38.09
2023-05-16T11:08:13.182Z,38.17
2023-05-16T11:09:13.207Z,37.96
2023-05-16T11:10:13.240Z,38.01
2023-05-16T11:11:13.707Z,38.01
2023-05-16T11:12:13.202Z,38.06
2023-05-16T11:13:13.172Z,38.06
2023-05-16T11:14:13.160Z,38.01
2023-05-16T11:15:13.165Z,38.07
2023-05-16T11:16:13.218Z,37.94
2023-05-16T11:17:13.503Z,38.02
2023-05-16T11:18:13.218Z,38.07
2023-05-16T11:19:13.268Z,38.10
2023-05-16T11:20:13.191Z,37.95
2023-05-16T11:21:13.213Z,37.94
2023-05-16T11:22:20.836Z,37.96
2023-05-16T11:23:13.162Z,37.91
2023-05-16T11:24:13.163Z,37.96
2023-05-16T11:25:13.188Z,37.74
2023-05-16T11:26:13.332Z,37.87
2023-05-16T11:27:13.226Z,37.90
2023-05-16T11:28:16.361Z,37.83
2023-05-16T11:29:12.714Z,37.81
2023-05-16T11:30:12.677Z,37.74
2023-05-16T11:31:12.724Z,37.84
2023-05-16T11:32:12.880Z,37.92
2023-05-16T11:33:12.797Z,37.94
2023-05-16T11:34:12.458Z,37.92
2023-05-16T11:35:14.507Z,38.03
2023-05-16T11:36:16.335Z,37.99
2023-05-16T11:37:12.311Z,38.08
2023-05-16T11:38:12.705Z,37.99
2023-05-16T11:39:12.233Z,38.13
2023-05-16T11:40:12.281Z,38.06
2023-05-16T11:41:12.271Z,38.05
2023-05-16T11:42:12.102Z,37.99
2023-05-16T11:43:11.978Z,37.92
2023-05-16T11:44:12.917Z,37.95
2023-05-16T11:45:12.216Z,37.81
2023-05-16T11:46:12.275Z,37.90
2023-05-16T11:47:12.437Z,37.81
2023-05-16T11:48:19.002Z,37.77
2023-05-16T11:49:11.741Z,37.75
2023-05-16T11:50:11.684Z,37.82
2023-05-16T11:51:11.638Z,37.84
2023-05-16T11:52:11.706Z,37.79
2023-05-16T11:53:11.848Z,37.82
2023-05-16T11:54:11.506Z,37.84
2023-05-16T11:55:11.512Z,37.79
2023-05-16T11:56:11.397Z,37.95
2023-05-16T11:57:11.361Z,37.88
2023-05-16T11:58:11.834Z,37.81
2023-05-16T11:59:11.251Z,37.75
2023-05-16T12:00:12.310Z,38.03
2023-05-16T12:01:11.770Z,37.94
2023-05-16T12:02:11.210Z,38.00
2023-05-16T12:03:11.145Z,37.96
2023-05-16T12:04:11.108Z,37.93
2023-05-16T12:05:10.944Z,37.97
2023-05-16T12:06:10.873Z,37.89
2023-05-16T12:07:11.220Z,37.93
2023-05-16T12:08:11.230Z,37.88
2023-05-16T12:09:10.716Z,37.83
2023-05-16T12:10:10.664Z,37.86
2023-05-16T12:11:10.626Z,37.84
2023-05-16T12:12:10.744Z,37.92
2023-05-16T12:13:10.561Z,37.93
2023-05-16T12:14:10.547Z,37.96
2023-05-16T12:15:10.427Z,37.82
2023-05-16T12:16:10.376Z,37.87
2023-05-16T12:17:10.805Z,37.87
2023-05-16T12:18:10.376Z,37.87
2023-05-16T12:19:10.225Z,37.89
2023-05-16T12:20:10.164Z,37.93
2023-05-16T12:21:10.227Z,37.91
2023-05-16T12:22:10.231Z,37.97
2023-05-16T12:23:10.011Z,37.97
2023-05-16T12:24:09.964Z,37.81
2023-05-16T12:25:09.964Z,37.89
2023-05-16T12:26:09.908Z,37.99
2023-05-16T12:27:10.299Z,37.97
2023-05-16T12:28:09.821Z,37.98
2023-05-16T12:29:09.832Z,37.90
2023-05-16T12:30:09.837Z,37.91
2023-05-16T12:31:15.869Z,37.92
2023-05-16T12:32:09.834Z,37.90
2023-05-16T12:33:09.904Z,37.91
2023-05-16T12:34:09.568Z,37.86
2023-05-16T12:35:10.019Z,37.91
2023-05-16T12:36:09.460Z,37.87
2023-05-16T12:37:12.972Z,37.96
2023-05-16T12:38:09.407Z,37.97
2023-05-16T12:39:09.545Z,37.93
2023-05-16T12:40:09.229Z,37.90
2023-05-16T12:41:09.182Z,37.90
2023-05-16T12:42:09.237Z,37.96
2023-05-16T12:43:09.229Z,37.93
2023-05-16T12:44:09.033Z,37.94
2023-05-16T12:45:08.983Z,37.92
2023-05-16T12:46:09.169Z,37.89
2023-05-16T12:47:08.885Z,37.81
2023-05-16T12:48:09.375Z,37.89
2023-05-16T12:49:08.778Z,37.84
2023-05-16T12:50:08.733Z,37.85
2023-05-16T12:51:08.670Z,37.92
2023-05-16T12:52:08.610Z,37.94
2023-05-16T12:53:09.231Z,37.99
2023-05-16T12:54:10.391Z,37.95
2023-05-16T12:55:11.671Z,37.89
2023-05-16T12:56:08.471Z,37.93
2023-05-16T12:57:08.509Z,37.91